Bookmark and Share
Track history (hours):
 

Yasemin

Last reported at 2014-Apr-24 19:08 UTC. Time now 2014-Apr-24 19:38 UTC.
Position N 39°52' E 008°34'.

Length 105 m; draft 7.2 m.

Type: Cargo ship. MMSI: 249988000.

NotesDate/timePositionNaut miles runAvg speedWind from/ knotsBaromVisibWave heightAir tempDewpointWater temp
2014-Apr-24 19:08N 39°52' E 008°34'0 0.0
2014-Apr-24 18:23N 39°52' E 008°34'0 0.0
2014-Apr-24 15:08N 39°52' E 008°34'0 0.0
2014-Apr-24 13:26N 39°52' E 008°34'0 0.0
2014-Apr-24 03:32N 39°52' E 008°34'0 0.0
2014-Apr-24 01:20N 39°52' E 008°34'11 1.1
2014-Apr-23 15:11N 39°48' E 008°20'1012.1
2014-Apr-23 14:21N 39°45' E 008°08'  
2014-Apr-21 07:31N 35°59' W 005°12'1414.9
2014-Apr-21 06:33N 35°57' W 005°29'1511.8
2014-Apr-21 05:18N 35°55' W 005°47'1011.8
2014-Apr-21 04:28N 35°54' W 005°60'20410.8
2014-Apr-20 09:33N 37°28' W 009°46'1211.6
2014-Apr-20 08:32N 37°40' W 009°48'  
2014-Apr-17 23:11N 45°45' W 002°38'2112.6
2014-Apr-17 21:33N 45°53' W 002°11'1313.0
2014-Apr-17 20:33N 45°58' W 001°54'1312.5
2014-Apr-17 19:33N 46°03' W 001°37'1211.7
2014-Apr-17 18:32N 46°06' W 001°21'  

Dump ship's entire track history

sailing weather and tide predictions

Yasemin — 9HA2114 — position and weather